Terminal Aerodrome Forecast
Issued by NWS

Home | Current Version | Previous Version | Text Only | Print | Product List | Glossary On
Versions: 1 2 3 4 5 6 7 8 9 10 11 12 13 14 15 16 17 18 19 20 21 22 23 24 25 26 27 28 29 30 31 32
000
FTUS41 KCTP 281720
TAFBFD
TAF
KBFD 281720Z 2818/2918 20004KT P6SM SCT040
     FM281900 19005KT P6SM VCTS BKN040CB
     FM282200 19003KT P6SM VCSH BKN040
     FM290100 VRB03KT 4SM BR SKC
     FM291200 23005KT P6SM SCT040
     FM291600 23005KT P6SM VCTS BKN040CB=

USA.gov is the U.S. government's official web portal to all federal, state and local government web resources and services.